O'Fallon, Missouri
Current Conditions -  °F | °C
As of 12:54 AM on Friday 28 Nov 2014 (Local Time) from KSUS Reporting Station
Clear Clear  
Wind Chill: 19°   Ceiling: Unl
Heat Index: 27°   Visibility: 10mi
Dew Point: 19°   Wind: 7mph
Humidity: 72%   Direction: 110°ESE
Pressure: 30.38"   Gusts: NA
Location:  38.78°N, 90.71°W
Report Text: KSUS 280654Z AUTO 11006KT 10SM CLR M03/M07 A3038 RMK AO2 SLP297 T10281072
Loading
Personal Weather Stations






























Interactive Weather Map New forecast layout! Learn more

10-Day Weather Forecast

Advertisements
Track Severe Weather on mobile